Berclair, Mississippi
Current Conditions -  °F | °C
As of 8:53 PM on Saturday 22 Nov 2014 (Local Time) from KGWO Reporting Station
Clear Clear  
Wind Chill: 58°   Ceiling: Unl
Heat Index: 58°   Visibility: 10mi
Dew Point: 49°   Wind: 6mph
Humidity: 72%   Direction: 90°E
Pressure: 30"   Gusts: NA
Location:  33.4064°N, 90.3812°W
Report Text: KGWO 230253Z AUTO 09005KT 10SM CLR 14/09 A3000 RMK AO2 PRESFR SLP157 T01440094 58017 TSNO
Loading
Personal Weather Stations






























Interactive Weather Map New forecast layout! Learn more

10-Day Weather Forecast

Advertisements
Track Severe Weather on mobile